Dunphy, Nevada
Current Conditions -  °F | °C
As of 1:18 PM on Saturday 22 Nov 2014 (Local Time) from KEKO Reporting Station
Overcast Overcast  
Wind Chill: 54°   Ceiling: 5000
Heat Index: 54°   Visibility: 10mi
Dew Point: 41°   Wind: 21mph
Humidity: 62%   Direction: 290°WNW
Pressure: 29.77"   Gusts: 32mph
Location:  40.4796°N, 116.369°W
Report Text: KEKO 222118Z AUTO 29018G28KT 10SM SCT041 BKN050 OVC110 12/05 A2977 RMK AO2 PK WND 26037/2103 LTG DSNT NE AND E TSE15 T01220050
Loading
Personal Weather Stations






























Interactive Weather Map New forecast layout! Learn more

10-Day Weather Forecast

Advertisements
Track Severe Weather on mobile